createdAt,value
2022-12-02T00:00:51.175Z,35.10
2022-12-02T00:03:25.856Z,34.85
2022-12-02T00:05:57.162Z,33.88
2022-12-02T00:08:34.242Z,34.20
2022-12-02T00:11:29.822Z,33.85
2022-12-02T00:14:14.922Z,34.58
2022-12-02T00:16:45.104Z,34.95
2022-12-02T00:19:15.161Z,35.45
2022-12-02T00:21:46.087Z,34.88
2022-12-02T00:24:18.612Z,33.45
2022-12-02T00:26:48.318Z,34.65
2022-12-02T00:29:15.937Z,33.85
2022-12-02T00:31:44.365Z,37.72
2022-12-02T00:34:12.814Z,37.15
2022-12-02T00:36:41.151Z,34.85
2022-12-02T00:39:09.578Z,36.30
2022-12-02T00:41:37.973Z,34.75
2022-12-02T00:44:25.359Z,34.65
2022-12-02T00:46:55.358Z,35.83
2022-12-02T00:49:23.788Z,33.83
2022-12-02T00:51:52.287Z,35.35
2022-12-02T00:54:20.600Z,35.90
2022-12-02T00:56:49.129Z,35.88
2022-12-02T00:59:17.642Z,35.28
2022-12-02T01:01:45.969Z,36.13
2022-12-02T01:04:14.389Z,34.30
2022-12-02T01:06:42.820Z,34.80
2022-12-02T01:09:11.384Z,35.60
2022-12-02T01:11:39.759Z,34.13
2022-12-02T01:14:08.067Z,36.38
2022-12-02T01:16:36.440Z,35.95
2022-12-02T01:19:05.152Z,35.30
2022-12-02T01:21:33.589Z,35.33
2022-12-02T01:24:02.092Z,32.95
2022-12-02T01:26:30.525Z,35.13
2022-12-02T01:28:59.086Z,37.92
2022-12-02T01:31:27.580Z,33.65
2022-12-02T01:33:55.926Z,34.65
2022-12-02T01:36:24.759Z,35.65
2022-12-02T01:38:53.210Z,35.10
2022-12-02T01:41:22.546Z,33.80
2022-12-02T01:43:50.820Z,34.30
2022-12-02T01:46:18.951Z,36.50
2022-12-02T01:48:46.943Z,34.80
2022-12-02T01:51:15.598Z,36.00
2022-12-02T01:53:43.762Z,34.65
2022-12-02T01:56:12.500Z,33.88
2022-12-02T01:58:40.963Z,33.47
2022-12-02T02:01:32.290Z,34.80
2022-12-02T02:04:04.856Z,32.97
2022-12-02T02:06:42.807Z,34.63
2022-12-02T02:09:14.321Z,33.72
2022-12-02T02:11:44.510Z,34.35
2022-12-02T02:14:14.790Z,36.20
2022-12-02T02:16:44.906Z,35.10
2022-12-02T02:19:17.585Z,32.42
2022-12-02T02:21:55.486Z,33.90
2022-12-02T02:24:25.582Z,36.75
2022-12-02T02:26:55.775Z,33.38
2022-12-02T02:29:25.877Z,33.92
2022-12-02T02:31:56.367Z,35.40
2022-12-02T02:34:27.416Z,35.25
2022-12-02T02:36:58.525Z,34.15
2022-12-02T02:39:29.207Z,34.95
2022-12-02T02:42:00.621Z,33.92
2022-12-02T02:44:30.619Z,35.03
2022-12-02T02:46:59.279Z,33.70
2022-12-02T02:49:28.212Z,35.95
2022-12-02T02:51:55.920Z,35.92
2022-12-02T02:54:24.358Z,36.60
2022-12-02T02:56:53.566Z,34.20
2022-12-02T02:59:21.156Z,36.65
2022-12-02T03:01:52.767Z,34.85
2022-12-02T03:04:26.097Z,34.78
2022-12-02T03:06:56.571Z,31.25
2022-12-02T03:09:27.115Z,34.13
2022-12-02T03:11:59.512Z,33.53
2022-12-02T03:14:30.719Z,32.13
2022-12-02T03:17:04.328Z,31.58
2022-12-02T03:19:37.270Z,33.95
2022-12-02T03:22:09.704Z,36.65
2022-12-02T03:24:41.670Z,34.38
2022-12-02T03:27:14.104Z,34.55
2022-12-02T03:29:45.748Z,32.00
2022-12-02T03:32:16.144Z,34.65
2022-12-02T03:34:46.516Z,35.28
2022-12-02T03:37:16.911Z,33.33
2022-12-02T03:39:47.060Z,33.80
2022-12-02T03:42:18.940Z,33.53
2022-12-02T03:44:51.416Z,31.67
2022-12-02T03:47:21.677Z,31.58
2022-12-02T03:49:52.069Z,32.50
2022-12-02T03:52:20.210Z,30.50
2022-12-02T03:54:54.710Z,33.63
2022-12-02T03:57:25.944Z,33.08
2022-12-02T03:59:56.594Z,32.72
2022-12-02T04:02:27.101Z,29.90
2022-12-02T04:04:57.457Z,29.63
2022-12-02T04:07:27.905Z,30.25
2022-12-02T04:09:58.243Z,30.58
2022-12-02T04:12:28.344Z,31.17
2022-12-02T04:14:58.350Z,30.17
2022-12-02T04:17:28.487Z,29.88
2022-12-02T04:19:58.569Z,31.52
2022-12-02T04:22:28.559Z,29.80
2022-12-02T04:24:59.934Z,30.20
2022-12-02T04:27:30.051Z,31.02
2022-12-02T04:30:00.156Z,31.50
2022-12-02T04:32:30.336Z,28.10
2022-12-02T04:35:00.393Z,30.38
2022-12-02T04:37:30.475Z,30.08
2022-12-02T04:40:00.554Z,30.27
2022-12-02T04:42:30.584Z,30.65
2022-12-02T04:45:01.244Z,29.35
2022-12-02T04:47:32.004Z,29.98
2022-12-02T04:50:05.104Z,27.55
2022-12-02T04:52:35.457Z,27.40
2022-12-02T04:55:06.525Z,27.13
2022-12-02T04:57:36.579Z,27.98
2022-12-02T05:00:08.815Z,28.27
2022-12-02T05:02:39.003Z,26.65
2022-12-02T05:05:09.774Z,26.08
2022-12-02T05:07:40.189Z,27.88
2022-12-02T05:10:11.153Z,26.17
2022-12-02T05:12:41.253Z,26.70
2022-12-02T05:15:11.743Z,27.83
2022-12-02T05:17:42.499Z,28.38
2022-12-02T05:20:13.735Z,27.10
2022-12-02T05:22:43.911Z,29.40
2022-12-02T05:25:14.191Z,25.38
2022-12-02T05:27:42.601Z,25.10
2022-12-02T05:30:13.205Z,26.58
2022-12-02T05:32:42.317Z,29.42
2022-12-02T05:35:10.855Z,27.92
2022-12-02T05:37:39.173Z,29.52
2022-12-02T05:40:09.018Z,26.25
2022-12-02T05:42:41.988Z,28.48
2022-12-02T05:45:22.483Z,26.35
2022-12-02T05:47:56.134Z,26.85
2022-12-02T05:50:26.427Z,25.80
2022-12-02T05:52:56.516Z,26.73
2022-12-02T05:55:27.947Z,27.83
2022-12-02T05:58:06.614Z,25.33
2022-12-02T06:00:37.421Z,26.95
2022-12-02T06:03:20.213Z,24.60
2022-12-02T06:05:55.476Z,26.23
2022-12-02T06:08:39.506Z,25.33
2022-12-02T06:11:30.490Z,27.45
2022-12-02T06:14:15.561Z,24.92
2022-12-02T06:16:57.311Z,26.67
2022-12-02T06:19:42.344Z,25.58
2022-12-02T06:22:33.033Z,27.35
2022-12-02T06:25:26.948Z,25.27
2022-12-02T06:28:28.734Z,26.77
2022-12-02T06:31:15.488Z,23.92
2022-12-02T06:33:50.467Z,24.27
2022-12-02T06:36:30.783Z,23.48
2022-12-02T06:39:21.023Z,23.92
2022-12-02T06:41:53.698Z,24.63
2022-12-02T06:44:45.535Z,23.80
2022-12-02T06:47:37.440Z,25.05
2022-12-02T06:50:07.526Z,22.33
2022-12-02T06:52:46.304Z,22.83
2022-12-02T06:55:35.952Z,24.52
2022-12-02T06:58:35.296Z,23.13
2022-12-02T07:01:08.326Z,22.85
2022-12-02T07:04:26.952Z,22.00
2022-12-02T07:07:20.733Z,24.50
2022-12-02T07:10:07.986Z,22.45
2022-12-02T07:12:45.485Z,22.77
2022-12-02T07:15:35.790Z,25.63
2022-12-02T07:18:21.961Z,22.55
2022-12-02T07:20:50.412Z,21.90
2022-12-02T07:23:27.751Z,23.25
2022-12-02T07:26:00.899Z,23.90
2022-12-02T07:28:44.640Z,22.92
2022-12-02T07:31:25.663Z,24.13
2022-12-02T07:33:55.198Z,24.40
2022-12-02T07:36:22.529Z,22.83
2022-12-02T07:39:05.740Z,25.02
2022-12-02T07:41:37.398Z,22.63
2022-12-02T07:44:07.789Z,23.90
2022-12-02T07:46:37.551Z,22.58
2022-12-02T07:49:07.391Z,23.33
2022-12-02T07:51:37.188Z,21.33
2022-12-02T07:54:07.346Z,23.48
2022-12-02T07:56:37.185Z,24.27
2022-12-02T07:59:12.316Z,25.00
2022-12-02T08:01:42.846Z,24.67
2022-12-02T08:04:12.963Z,23.02
2022-12-02T08:06:41.269Z,23.70
2022-12-02T08:09:10.622Z,22.77
2022-12-02T08:11:38.552Z,22.63
2022-12-02T08:14:06.748Z,25.48
2022-12-02T08:16:35.611Z,26.52
2022-12-02T08:19:04.194Z,24.23
2022-12-02T08:21:32.732Z,26.15
2022-12-02T08:24:01.352Z,24.08
2022-12-02T08:26:28.546Z,23.88
2022-12-02T08:28:57.131Z,23.80
2022-12-02T08:31:26.291Z,24.63
2022-12-02T08:33:55.213Z,22.92
2022-12-02T08:36:23.637Z,24.00
2022-12-02T08:38:50.916Z,24.67
2022-12-02T08:41:19.522Z,24.13
2022-12-02T08:43:48.190Z,24.40
2022-12-02T08:46:16.196Z,24.63
2022-12-02T08:48:44.556Z,22.83
2022-12-02T08:51:13.315Z,25.65
2022-12-02T08:53:41.374Z,23.05
2022-12-02T08:56:09.782Z,24.25
2022-12-02T08:58:38.728Z,24.02
2022-12-02T09:01:07.146Z,23.98
2022-12-02T09:03:35.311Z,23.08
2022-12-02T09:06:03.858Z,24.13
2022-12-02T09:08:32.428Z,23.90
2022-12-02T09:11:00.390Z,24.10
2022-12-02T09:13:28.763Z,23.90
2022-12-02T09:15:57.267Z,25.25
2022-12-02T09:18:25.663Z,23.42
2022-12-02T09:20:54.108Z,27.00
2022-12-02T09:23:22.537Z,26.60
2022-12-02T09:25:50.871Z,25.63
2022-12-02T09:28:22.154Z,25.65
2022-12-02T09:30:52.071Z,25.75
2022-12-02T09:33:22.146Z,23.80
2022-12-02T09:35:51.551Z,24.02
2022-12-02T09:38:18.950Z,24.63
2022-12-02T09:40:47.826Z,25.52
2022-12-02T09:43:16.073Z,25.77
2022-12-02T09:45:44.275Z,24.45
2022-12-02T09:48:13.235Z,24.13
2022-12-02T09:50:41.366Z,24.63
2022-12-02T09:53:19.524Z,24.88
2022-12-02T09:55:49.159Z,22.80
2022-12-02T09:58:24.381Z,24.00
2022-12-02T10:00:53.853Z,25.75
2022-12-02T10:03:29.507Z,26.17
2022-12-02T10:06:08.107Z,23.50
2022-12-02T10:11:08.555Z,23.85
2022-12-02T10:13:41.584Z,22.83
2022-12-02T10:16:14.752Z,23.60
2022-12-02T10:18:44.731Z,22.15
2022-12-02T10:21:15.118Z,23.73
2022-12-02T10:24:09.944Z,25.55
2022-12-02T10:26:53.337Z,23.90
2022-12-02T10:29:31.572Z,25.25
2022-12-02T10:32:21.653Z,26.40
2022-12-02T10:35:10.334Z,23.88
2022-12-02T10:37:40.512Z,25.55
2022-12-02T10:40:24.935Z,27.00
2022-12-02T10:43:15.314Z,25.50
2022-12-02T10:45:58.025Z,26.83
2022-12-02T10:48:28.289Z,25.90
2022-12-02T10:50:58.614Z,26.88
2022-12-02T10:53:30.998Z,27.80
2022-12-02T10:56:01.144Z,28.30
2022-12-02T10:58:31.928Z,27.65
2022-12-02T11:01:02.694Z,28.50
2022-12-02T11:03:33.197Z,27.95
2022-12-02T11:06:14.823Z,27.17
2022-12-02T11:08:48.730Z,28.23
2022-12-02T11:11:41.286Z,28.00
2022-12-02T11:14:40.283Z,28.48
2022-12-02T11:17:13.369Z,24.52
2022-12-02T11:19:46.856Z,24.17
2022-12-02T11:22:58.615Z,26.55
2022-12-02T11:25:43.787Z,25.20
2022-12-02T11:28:19.537Z,24.77
2022-12-02T11:31:14.976Z,26.75
2022-12-02T11:33:43.816Z,25.25
2022-12-02T11:36:24.809Z,24.80
2022-12-02T11:38:54.742Z,26.77
2022-12-02T11:41:30.578Z,24.57
2022-12-02T11:44:00.445Z,26.08
2022-12-02T11:46:51.308Z,26.45
2022-12-02T11:49:31.186Z,25.83
2022-12-02T11:55:13.586Z,27.58
2022-12-02T11:57:55.427Z,28.60
2022-12-02T12:00:38.418Z,25.98
2022-12-02T12:03:15.047Z,25.70
2022-12-02T12:06:20.489Z,27.75
2022-12-02T12:08:57.157Z,25.23
2022-12-02T12:11:35.123Z,25.10
2022-12-02T12:14:14.118Z,25.73
2022-12-02T12:16:49.372Z,25.95
2022-12-02T12:19:17.079Z,25.52
2022-12-02T12:21:55.287Z,24.23
2022-12-02T12:27:04.101Z,26.10
2022-12-02T12:29:38.889Z,26.58
2022-12-02T12:32:11.085Z,25.55
2022-12-02T12:34:41.389Z,24.25
2022-12-02T12:37:11.366Z,25.52
2022-12-02T12:39:41.445Z,26.98
2022-12-02T12:42:14.630Z,26.30
2022-12-02T12:44:44.642Z,25.77
2022-12-02T12:47:14.700Z,26.98
2022-12-02T12:49:44.783Z,27.17
2022-12-02T12:52:14.926Z,27.23
2022-12-02T12:54:50.818Z,27.58
2022-12-02T12:57:21.397Z,28.27
2022-12-02T12:59:51.668Z,27.35
2022-12-02T13:02:21.896Z,24.23
2022-12-02T13:04:52.322Z,24.58
2022-12-02T13:07:22.621Z,25.73
2022-12-02T13:09:52.830Z,23.73
2022-12-02T13:12:23.241Z,27.65
2022-12-02T13:17:20.823Z,25.73
2022-12-02T13:19:50.743Z,25.42
2022-12-02T13:22:20.488Z,26.25
2022-12-02T13:24:50.580Z,25.98
2022-12-02T13:27:20.254Z,25.73
2022-12-02T13:29:50.520Z,28.45
2022-12-02T13:32:20.017Z,25.70
2022-12-02T13:34:50.965Z,26.33
2022-12-02T13:37:19.811Z,26.27
2022-12-02T13:39:50.192Z,30.00
2022-12-02T13:42:18.916Z,29.38
2022-12-02T13:44:46.823Z,30.95
2022-12-02T13:47:15.077Z,29.63
2022-12-02T13:49:43.576Z,29.77
2022-12-02T13:52:11.960Z,26.73
2022-12-02T13:54:40.548Z,28.77
2022-12-02T13:57:08.851Z,29.27
2022-12-02T13:59:38.617Z,29.48
2022-12-02T14:02:12.801Z,27.45
2022-12-02T14:04:42.594Z,26.80
2022-12-02T14:07:12.561Z,28.38
2022-12-02T14:09:42.118Z,30.27
2022-12-02T14:12:15.256Z,34.03
2022-12-02T14:14:45.413Z,26.63
2022-12-02T14:17:14.951Z,29.25
2022-12-02T14:19:44.815Z,26.83
2022-12-02T14:22:14.830Z,28.05
2022-12-02T14:24:48.872Z,28.60
2022-12-02T14:27:19.280Z,29.00
2022-12-02T14:29:49.097Z,26.13
2022-12-02T14:32:18.772Z,26.25
2022-12-02T14:34:48.531Z,27.15
2022-12-02T14:37:18.511Z,28.17
2022-12-02T14:39:48.101Z,43.42
2022-12-02T14:42:17.349Z,31.77
2022-12-02T14:44:44.912Z,29.95
2022-12-02T14:47:13.357Z,30.42
2022-12-02T14:49:42.441Z,30.40
2022-12-02T14:52:10.181Z,32.40
2022-12-02T14:54:38.889Z,29.45
2022-12-02T14:57:07.449Z,34.05
2022-12-02T14:59:35.539Z,35.95
2022-12-02T15:02:03.948Z,33.53
2022-12-02T15:04:32.481Z,32.03
2022-12-02T15:07:00.853Z,33.97
2022-12-02T15:09:29.357Z,32.78
2022-12-02T15:11:57.900Z,32.33
2022-12-02T15:14:26.069Z,32.75
2022-12-02T15:16:54.507Z,33.83
2022-12-02T15:19:22.926Z,32.72
2022-12-02T15:21:51.346Z,33.55
2022-12-02T15:24:19.720Z,33.55
2022-12-02T15:26:53.715Z,32.85
2022-12-02T15:29:25.376Z,33.85
2022-12-02T15:31:54.032Z,33.80
2022-12-02T15:34:25.512Z,33.38
2022-12-02T15:36:53.665Z,33.53
2022-12-02T15:39:22.078Z,33.83
2022-12-02T15:41:50.524Z,34.13
2022-12-02T15:44:19.004Z,32.78
2022-12-02T15:46:47.483Z,34.00
2022-12-02T15:49:16.008Z,31.92
2022-12-02T15:51:44.309Z,31.80
2022-12-02T15:54:12.880Z,30.73
2022-12-02T15:56:42.685Z,31.20
2022-12-02T15:59:11.188Z,34.00
2022-12-02T16:01:39.714Z,32.47
2022-12-02T16:04:08.024Z,34.78
2022-12-02T16:06:36.370Z,32.13
2022-12-02T16:09:04.883Z,32.80
2022-12-02T16:11:33.336Z,31.98
2022-12-02T16:14:01.760Z,29.38
2022-12-02T16:16:30.249Z,32.08
2022-12-02T16:18:58.540Z,31.25
2022-12-02T16:21:27.052Z,31.38
2022-12-02T16:23:55.411Z,33.83
2022-12-02T16:26:23.945Z,30.65
2022-12-02T16:28:52.255Z,32.53
2022-12-02T16:31:22.964Z,32.22
2022-12-02T16:33:53.011Z,34.15
2022-12-02T16:36:23.267Z,32.63
2022-12-02T16:38:53.321Z,33.90
2022-12-02T16:41:23.430Z,32.13
2022-12-02T16:43:53.591Z,31.08
2022-12-02T16:46:23.914Z,31.88
2022-12-02T16:48:52.122Z,33.45
2022-12-02T16:51:20.506Z,32.28
2022-12-02T16:53:48.967Z,32.97
2022-12-02T16:56:17.405Z,30.38
2022-12-02T16:58:46.081Z,31.70
2022-12-02T17:01:14.555Z,32.38
2022-12-02T17:03:43.108Z,33.35
2022-12-02T17:06:11.455Z,31.67
2022-12-02T17:08:40.012Z,35.83
2022-12-02T17:11:08.475Z,35.00
2022-12-02T17:13:36.883Z,33.28
2022-12-02T17:16:05.838Z,32.33
2022-12-02T17:18:33.742Z,34.53
2022-12-02T17:21:02.011Z,34.30
2022-12-02T17:23:30.580Z,33.30
2022-12-02T17:26:00.182Z,36.50
2022-12-02T17:28:30.257Z,33.38
2022-12-02T17:31:00.318Z,36.45
2022-12-02T17:33:30.494Z,35.75
2022-12-02T17:36:00.668Z,34.83
2022-12-02T17:38:30.964Z,33.20
2022-12-02T17:41:10.473Z,35.47
2022-12-02T17:43:40.743Z,35.75
2022-12-02T17:46:11.321Z,34.08
2022-12-02T17:48:44.191Z,34.97
2022-12-02T17:51:15.875Z,33.00
2022-12-02T17:53:45.997Z,31.00
2022-12-02T17:56:16.097Z,33.78
2022-12-02T17:58:46.142Z,31.83
2022-12-02T18:01:16.271Z,30.67
2022-12-02T18:03:46.324Z,32.00
2022-12-02T18:06:16.477Z,31.33
2022-12-02T18:08:46.988Z,30.70
2022-12-02T18:11:17.061Z,34.22
2022-12-02T18:13:47.067Z,32.05
2022-12-02T18:16:17.328Z,36.63
2022-12-02T18:18:47.722Z,36.65
2022-12-02T18:21:17.858Z,36.78
2022-12-02T18:23:48.118Z,36.95
2022-12-02T18:26:18.189Z,35.58
2022-12-02T18:28:48.238Z,37.13
2022-12-02T18:31:18.366Z,35.88
2022-12-02T18:33:48.458Z,35.28
2022-12-02T18:36:18.566Z,34.15
2022-12-02T18:38:48.622Z,33.50
2022-12-02T18:41:18.716Z,36.58
2022-12-02T18:43:49.206Z,36.58
2022-12-02T18:46:19.290Z,36.92
2022-12-02T18:48:49.407Z,35.72
2022-12-02T18:51:19.679Z,39.05
2022-12-02T18:53:49.774Z,37.60
2022-12-02T18:56:24.133Z,37.95
2022-12-02T18:58:56.520Z,38.90
2022-12-02T19:01:30.824Z,38.22
2022-12-02T19:04:04.253Z,40.30
2022-12-02T19:06:34.271Z,35.05
2022-12-02T19:09:04.659Z,36.67
2022-12-02T19:11:34.714Z,39.78
2022-12-02T19:14:04.769Z,39.08
2022-12-02T19:16:35.014Z,35.65
2022-12-02T19:19:05.209Z,35.78
2022-12-02T19:21:35.583Z,34.20
2022-12-02T19:24:05.996Z,34.05
2022-12-02T19:26:35.999Z,33.45
2022-12-02T19:29:06.014Z,34.25
2022-12-02T19:31:40.995Z,31.75
2022-12-02T19:34:14.075Z,32.55
2022-12-02T19:36:46.404Z,33.05
2022-12-02T19:39:16.723Z,27.50
2022-12-02T19:41:46.913Z,30.98
2022-12-02T19:44:17.108Z,27.08
2022-12-02T19:46:47.431Z,28.10
2022-12-02T19:49:17.676Z,27.70
2022-12-02T19:51:48.024Z,27.77
2022-12-02T19:54:18.258Z,27.83
2022-12-02T19:56:46.561Z,30.00
2022-12-02T19:59:15.155Z,30.25
2022-12-02T20:01:43.472Z,29.55
2022-12-02T20:04:39.667Z,29.40
2022-12-02T20:07:02.009Z,30.48
2022-12-02T20:09:32.261Z,36.05
2022-12-02T20:12:02.330Z,32.08
2022-12-02T20:14:32.375Z,30.38
2022-12-02T20:17:02.460Z,32.67
2022-12-02T20:19:32.505Z,30.08
2022-12-02T20:22:02.518Z,30.00
2022-12-02T20:24:32.654Z,28.58
2022-12-02T20:27:02.727Z,29.02
2022-12-02T20:29:33.213Z,28.15
2022-12-02T20:32:04.793Z,29.42
2022-12-02T20:34:35.384Z,29.73
2022-12-02T20:37:05.627Z,28.70
2022-12-02T20:39:36.019Z,30.92
2022-12-02T20:42:07.824Z,31.02
2022-12-02T20:44:38.074Z,31.50
2022-12-02T20:47:08.197Z,35.20
2022-12-02T20:49:38.304Z,35.05
2022-12-02T20:52:08.331Z,32.67
2022-12-02T20:54:38.461Z,37.95
2022-12-02T20:57:08.558Z,31.30
2022-12-02T20:59:38.988Z,30.50
2022-12-02T21:02:11.704Z,34.13
2022-12-02T21:04:41.797Z,36.70
2022-12-02T21:07:11.895Z,35.00
2022-12-02T21:09:42.134Z,33.35
2022-12-02T21:12:15.197Z,34.95
2022-12-02T21:14:45.311Z,33.85
2022-12-02T21:17:15.339Z,32.13
2022-12-02T21:19:45.403Z,30.48
2022-12-02T21:22:15.423Z,33.55
2022-12-02T21:24:45.771Z,30.13
2022-12-02T21:27:14.040Z,31.23
2022-12-02T21:29:42.583Z,30.58
2022-12-02T21:32:10.852Z,30.73
2022-12-02T21:34:39.131Z,32.30
2022-12-02T21:37:07.578Z,32.70
2022-12-02T21:39:36.048Z,34.78
2022-12-02T21:42:04.558Z,36.95
2022-12-02T21:44:33.054Z,39.20
2022-12-02T21:47:01.577Z,38.20
2022-12-02T21:49:29.809Z,40.70
2022-12-02T21:51:58.162Z,39.90
2022-12-02T21:54:26.598Z,40.38
2022-12-02T21:56:55.142Z,40.38
2022-12-02T21:59:23.350Z,41.05
2022-12-02T22:01:52.070Z,38.20
2022-12-02T22:04:20.300Z,39.03
2022-12-02T22:06:48.937Z,39.83
2022-12-02T22:09:17.203Z,39.97
2022-12-02T22:11:46.610Z,38.83
2022-12-02T22:14:13.962Z,40.78
2022-12-02T22:16:42.359Z,41.90
2022-12-02T22:19:14.952Z,38.22
2022-12-02T22:21:45.601Z,38.25
2022-12-02T22:24:15.676Z,39.58
2022-12-02T22:26:45.761Z,40.88
2022-12-02T22:29:15.780Z,39.53
2022-12-02T22:31:45.957Z,39.38
2022-12-02T22:34:16.023Z,39.90
2022-12-02T22:36:46.080Z,41.30
2022-12-02T22:39:16.097Z,39.88
2022-12-02T22:41:46.141Z,41.50
2022-12-02T22:44:16.221Z,37.58
2022-12-02T22:46:46.207Z,41.25
2022-12-02T22:49:16.392Z,38.85
2022-12-02T22:51:46.697Z,37.38
2022-12-02T22:54:17.036Z,39.30
2022-12-02T22:56:47.080Z,38.35
2022-12-02T22:59:18.610Z,37.35
2022-12-02T23:01:48.655Z,39.20
2022-12-02T23:04:18.788Z,40.67
2022-12-02T23:06:47.345Z,41.95
2022-12-02T23:09:16.144Z,39.60
2022-12-02T23:11:44.079Z,39.38
2022-12-02T23:14:12.447Z,40.15
2022-12-02T23:16:40.959Z,39.72
2022-12-02T23:19:09.176Z,40.08
2022-12-02T23:21:37.656Z,41.47
2022-12-02T23:24:06.617Z,41.78
2022-12-02T23:26:34.603Z,38.15
2022-12-02T23:29:03.171Z,42.25
2022-12-02T23:31:31.466Z,39.83
2022-12-02T23:33:59.823Z,42.33
2022-12-02T23:36:33.507Z,40.97
2022-12-02T23:39:05.027Z,41.38
2022-12-02T23:41:34.723Z,38.90
2022-12-02T23:44:04.811Z,40.13
2022-12-02T23:46:34.796Z,41.05
2022-12-02T23:49:04.917Z,42.25
2022-12-02T23:51:34.696Z,41.67
2022-12-02T23:54:04.709Z,43.30
2022-12-02T23:56:34.629Z,41.45
2022-12-02T23:59:04.487Z,40.85
